Upstream stations:
Downstream station:
SHEF ID: SEIO2 North Canadian River near Seilin
STATION TYPE:
Regulating: Stage = 11.00, Flow = 1140
PRECIP STAGE RIV-FLOW BAT-LOAD
in ft cfs volt
Ccp-Rev Ccp-Rev Ccp-Rev Ccp-Rev
(US/Central)
03/21 00:00 0.00 4.68 52 12.68
03/21 01:00 0.00 4.69 53 12.66
03/21 02:00 0.00 4.68 52 12.64
03/21 03:00 0.00 4.69 53 12.61
03/21 04:00 0.00 4.69 53 12.60
03/21 05:00 0.00 4.71 55 12.57
03/21 06:00 0.00 4.72 56 12.56
03/21 07:00 0.00 4.72 56 12.53
03/21 08:00 0.00 4.70 54 12.53
03/21 09:00 0.00 4.72 56 12.53
03/21 10:00 0.00 4.72 56 12.98
03/21 11:00 0.00 4.71 55 13.26
03/21 12:00 0.00 4.70 54 13.48
03/21 13:00 0.00 4.69 53 13.17
03/21 14:00 0.00 4.68 52 13.31
03/21 15:00 0.07 4.67 51 13.09
03/21 16:00 0.06 4.70 54 ----
03/21 17:00 0.17 4.69 53 12.98
03/21 18:00 0.16 4.69 53 12.94
03/21 19:00 0.31 4.73 56 12.80
03/21 20:00 0.01 4.75 58 12.77
03/21 21:00 0.00 4.74 57 12.67
03/21 22:00 0.24 4.76 59 12.63
03/21 23:00 0.02 4.79 62 12.61